createdAt,value
2018-04-22T00:00:03.263Z,101448.21
2018-04-22T00:03:09.510Z,101449.66
2018-04-22T00:06:15.023Z,101450.64
2018-04-22T00:09:20.258Z,101446.91
2018-04-22T00:12:26.104Z,101441.91
2018-04-22T00:15:32.337Z,101447.56
2018-04-22T00:18:39.173Z,101443.11
2018-04-22T00:21:46.213Z,101442.41
2018-04-22T00:24:52.342Z,101436.03
2018-04-22T00:27:59.389Z,101431.87
2018-04-22T00:31:06.461Z,101429.05
2018-04-22T00:34:13.521Z,101421.85
2018-04-22T00:37:19.638Z,101418.61
2018-04-22T00:40:25.389Z,101418.67
2018-04-22T00:43:30.608Z,101423.44
2018-04-22T00:46:36.121Z,101415.90
2018-04-22T00:49:42.250Z,101412.98
2018-04-22T00:52:47.482Z,101406.32
2018-04-22T00:55:53.593Z,101405.88
2018-04-22T00:58:59.753Z,101398.81
2018-04-22T01:02:05.794Z,101395.40
2018-04-22T01:05:11.636Z,101390.97
2018-04-22T01:08:17.495Z,101389.51
2018-04-22T01:11:23.667Z,101395.87
2018-04-22T01:14:30.504Z,101386.61
2018-04-22T01:17:35.826Z,101392.23
2018-04-22T01:20:42.887Z,101384.33
2018-04-22T01:23:49.013Z,101384.83
2018-04-22T01:26:55.149Z,101383.70
2018-04-22T01:30:02.233Z,101374.34
2018-04-22T01:33:09.256Z,101380.31
2018-04-22T01:36:15.393Z,101382.60
2018-04-22T01:39:21.246Z,101375.91
2018-04-22T01:42:26.451Z,101379.77
2018-04-22T01:45:31.706Z,101376.92
2018-04-22T01:48:36.901Z,101374.84
2018-04-22T01:51:42.132Z,101367.22
2018-04-22T01:54:47.046Z,101366.49
2018-04-22T01:57:52.766Z,101360.69
2018-04-22T02:00:58.908Z,101361.12
2018-04-22T02:04:04.538Z,101356.07
2018-04-22T02:07:09.561Z,101365.53
2018-04-22T02:10:16.297Z,101357.12
2018-04-22T02:13:21.289Z,101354.61
2018-04-22T02:16:26.553Z,101346.23
2018-04-22T02:19:31.818Z,101350.50
2018-04-22T02:22:37.090Z,101351.00
2018-04-22T02:25:43.190Z,101344.74
2018-04-22T02:28:50.098Z,101346.91
2018-04-22T02:31:55.602Z,101342.35
2018-04-22T02:35:01.769Z,101339.94
2018-04-22T02:38:07.537Z,101338.67
2018-04-22T02:41:14.406Z,101331.95
2018-04-22T02:44:21.474Z,101328.23
2018-04-22T02:47:27.165Z,101331.34
2018-04-22T02:50:33.325Z,101326.26
2018-04-22T02:53:39.014Z,101325.13
2018-04-22T02:56:45.002Z,101321.37
2018-04-22T02:59:50.904Z,101319.69
2018-04-22T03:02:57.888Z,101315.84
2018-04-22T03:06:04.899Z,101310.34
2018-04-22T03:09:11.934Z,101298.64
2018-04-22T03:12:18.961Z,101292.23
2018-04-22T03:15:25.069Z,101292.80
2018-04-22T03:18:30.977Z,101289.87
2018-04-22T03:21:37.745Z,101298.40
2018-04-22T03:24:44.772Z,101292.98
2018-04-22T03:27:50.593Z,101296.89
2018-04-22T03:30:55.878Z,101292.25
2018-04-22T03:34:02.069Z,101295.33
2018-04-22T03:37:07.871Z,101292.88
2018-04-22T03:40:13.135Z,101286.13
2018-04-22T03:43:19.221Z,101283.49
2018-04-22T03:46:26.513Z,101279.28
2018-04-22T03:49:31.970Z,101278.02
2018-04-22T03:52:37.849Z,101283.64
2018-04-22T03:55:43.930Z,101284.61
2018-04-22T03:58:49.818Z,101278.28
2018-04-22T04:01:55.961Z,101280.94
2018-04-22T04:05:01.225Z,101281.37
2018-04-22T04:08:07.394Z,101281.39
2018-04-22T04:11:13.263Z,101277.53
2018-04-22T04:14:19.505Z,101275.49
2018-04-22T04:17:25.578Z,101275.25
2018-04-22T04:20:43.509Z,101276.89
2018-04-22T04:27:49.812Z,101275.77
2018-04-22T04:30:55.685Z,101270.30
2018-04-22T04:34:02.489Z,101272.92
2018-04-22T04:37:08.365Z,101271.66
2018-04-22T04:40:14.482Z,101266.63
2018-04-22T04:43:20.353Z,101266.50
2018-04-22T04:46:26.602Z,101262.40
2018-04-22T04:49:32.419Z,101256.08
2018-04-22T04:52:38.611Z,101249.27
2018-04-22T04:55:44.721Z,101247.25
2018-04-22T04:58:50.929Z,101245.58
2018-04-22T05:01:56.197Z,101251.91
2018-04-22T05:05:01.458Z,101246.81
2018-04-22T05:08:06.757Z,101250.21
2018-04-22T05:11:12.039Z,101248.50
2018-04-22T05:14:17.331Z,101254.88
2018-04-22T05:17:22.616Z,101264.61
2018-04-22T05:20:29.190Z,101262.11
2018-04-22T05:23:34.997Z,101264.64
2018-04-22T05:26:41.167Z,101266.32
2018-04-22T05:29:48.231Z,101264.93
2018-04-22T05:32:55.352Z,101257.49
2018-04-22T05:36:01.155Z,101258.38
2018-04-22T05:39:06.505Z,101253.67
2018-04-22T05:42:12.813Z,101252.62
2018-04-22T05:45:18.645Z,101249.48
2018-04-22T05:48:25.445Z,101236.63
2018-04-22T05:51:31.248Z,101241.28
2018-04-22T05:54:37.356Z,101238.62
2018-04-22T05:57:44.474Z,101239.34
2018-04-22T06:00:50.348Z,101241.28
2018-04-22T06:03:55.613Z,101240.59
2018-04-22T06:07:01.622Z,101243.41
2018-04-22T06:10:07.431Z,101237.36
2018-04-22T06:13:12.697Z,101239.28
2018-04-22T06:16:17.442Z,101238.62
2018-04-22T06:19:22.707Z,101240.95
2018-04-22T06:22:29.001Z,101231.41
2018-04-22T06:25:34.888Z,101225.59
2018-04-22T06:28:41.071Z,101220.72
2018-04-22T06:31:47.249Z,101220.86
2018-04-22T06:34:53.996Z,101219.70
2018-04-22T06:37:59.967Z,101220.26
2018-04-22T06:41:05.234Z,101210.13
2018-04-22T06:44:11.474Z,101209.78
2018-04-22T06:47:18.477Z,101211.56
2018-04-22T06:50:24.270Z,101212.47
2018-04-22T06:53:30.394Z,101209.13
2018-04-22T06:56:37.279Z,101215.60
2018-04-22T06:59:43.066Z,101207.97
2018-04-22T07:02:49.240Z,101214.47
2018-04-22T07:05:54.556Z,101208.16
2018-04-22T07:09:00.915Z,101208.60
2018-04-22T07:12:06.394Z,101209.98
2018-04-22T07:15:11.710Z,101209.16
2018-04-22T07:18:16.375Z,101207.50
2018-04-22T07:21:23.562Z,101207.53
2018-04-22T07:24:29.385Z,101203.71
2018-04-22T07:27:35.275Z,101202.45
2018-04-22T07:30:41.211Z,101205.50
2018-04-22T07:33:47.412Z,101199.97
2018-04-22T07:36:54.526Z,101204.23
2018-04-22T07:40:00.318Z,101200.47
2018-04-22T07:43:06.238Z,101196.64
2018-04-22T07:46:13.121Z,101197.08
2018-04-22T07:49:20.157Z,101189.00
2018-04-22T07:52:27.211Z,101195.87
2018-04-22T07:55:34.240Z,101195.43
2018-04-22T07:58:40.322Z,101195.84
2018-04-22T08:01:46.213Z,101201.77
2018-04-22T08:04:52.304Z,101202.98
2018-04-22T08:07:58.185Z,101197.82
2018-04-22T08:11:03.873Z,101199.47
2018-04-22T08:14:10.981Z,101193.84
2018-04-22T08:17:17.106Z,101186.52
2018-04-22T08:20:23.279Z,101186.44
2018-04-22T08:23:29.485Z,101184.23
2018-04-22T08:26:35.865Z,101174.31
2018-04-22T08:29:41.953Z,101166.88
2018-04-22T08:32:48.142Z,101174.95
2018-04-22T08:35:54.327Z,101160.42
2018-04-22T08:39:01.459Z,101161.55
2018-04-22T08:42:06.989Z,101156.32
2018-04-22T08:45:13.142Z,101156.98
2018-04-22T08:48:19.277Z,101148.71
2018-04-22T08:51:25.410Z,101145.08
2018-04-22T08:54:31.494Z,101147.02
2018-04-22T08:57:38.513Z,101141.22
2018-04-22T09:00:44.622Z,101131.08
2018-04-22T09:03:50.818Z,101125.22
2018-04-22T09:06:56.977Z,101128.86
2018-04-22T09:10:03.080Z,101126.38
2018-04-22T09:13:08.154Z,101129.09
2018-04-22T09:16:14.146Z,101133.92
2018-04-22T09:19:20.130Z,101131.92
2018-04-22T09:22:26.053Z,101119.97
2018-04-22T09:25:31.934Z,101115.74
2018-04-22T09:28:38.935Z,101115.78
2018-04-22T09:31:45.919Z,101116.61
2018-04-22T09:34:53.042Z,101104.70
2018-04-22T09:37:59.873Z,101096.69
2018-04-22T09:41:05.431Z,101093.34
2018-04-22T09:44:12.237Z,101093.84
2018-04-22T09:47:18.430Z,101097.36
2018-04-22T09:50:25.570Z,101089.17
2018-04-22T09:53:31.838Z,101083.63
2018-04-22T09:56:37.401Z,101075.50
2018-04-22T09:59:43.316Z,101062.58
2018-04-22T10:02:49.191Z,101061.29
2018-04-22T10:05:54.843Z,101060.48
2018-04-22T10:09:00.113Z,101059.58
2018-04-22T10:12:05.055Z,101057.82
2018-04-22T10:15:09.996Z,101062.24
2018-04-22T10:18:17.038Z,101063.78
2018-04-22T10:21:24.149Z,101063.83
2018-04-22T10:24:29.941Z,101052.58
2018-04-22T10:27:36.051Z,101049.58
2018-04-22T10:30:41.346Z,101049.00
2018-04-22T10:33:48.338Z,101045.31
2018-04-22T10:36:54.223Z,101041.31
2018-04-22T10:39:59.510Z,101033.02
2018-04-22T10:43:05.697Z,101022.59
2018-04-22T10:46:11.872Z,101019.93
2018-04-22T10:49:17.152Z,101004.27
2018-04-22T10:52:23.346Z,101002.76
2018-04-22T10:55:30.154Z,100993.63
2018-04-22T10:58:37.196Z,100990.57
2018-04-22T11:01:44.206Z,100978.22
2018-04-22T11:04:50.346Z,100979.27
2018-04-22T11:07:57.351Z,100979.16
2018-04-22T11:11:03.463Z,100976.88
2018-04-22T11:14:09.634Z,100982.36
2018-04-22T11:17:16.445Z,100973.52
2018-04-22T11:20:23.554Z,100964.16
2018-04-22T11:23:30.181Z,100950.78
2018-04-22T11:26:36.281Z,100962.51
2018-04-22T11:29:42.261Z,100960.27
2018-04-22T11:32:49.060Z,100950.89
2018-04-22T11:35:54.916Z,100954.56
2018-04-22T11:39:00.197Z,100947.08
2018-04-22T11:42:05.571Z,100954.50
2018-04-22T11:45:11.745Z,100948.45
2018-04-22T11:48:17.859Z,100948.73
2018-04-22T11:51:24.870Z,100936.71
2018-04-22T11:54:30.997Z,100922.45
2018-04-22T11:57:36.872Z,100919.49
2018-04-22T12:00:42.749Z,100919.56
2018-04-22T12:03:48.022Z,100906.98
2018-04-22T12:06:54.239Z,100907.32
2018-04-22T12:10:00.345Z,100911.45
2018-04-22T12:13:07.129Z,100912.55
2018-04-22T12:16:13.290Z,100912.97
2018-04-22T12:19:19.394Z,100902.50
2018-04-22T12:22:25.754Z,100892.27
2018-04-22T12:25:31.676Z,100895.53
2018-04-22T12:28:37.804Z,100900.64
2018-04-22T12:31:43.710Z,100886.00
2018-04-22T12:34:49.557Z,100878.11
2018-04-22T12:37:54.867Z,100870.95
2018-04-22T12:41:01.043Z,100861.50
2018-04-22T12:44:06.934Z,100854.32
2018-04-22T12:47:11.949Z,100856.49
2018-04-22T12:50:17.226Z,100847.56
2018-04-22T12:53:23.326Z,100837.78
2018-04-22T12:56:29.574Z,100830.91
2018-04-22T12:59:34.843Z,100829.21
2018-04-22T13:02:41.129Z,100829.95
2018-04-22T13:05:47.965Z,100825.66
2018-04-22T13:08:54.062Z,100826.92
2018-04-22T13:11:59.339Z,100818.11
2018-04-22T13:15:04.606Z,100812.75
2018-04-22T13:18:10.916Z,100808.73
2018-04-22T13:21:17.035Z,100797.19
2018-04-22T13:24:24.144Z,100788.59
2018-04-22T13:27:29.602Z,100781.84
2018-04-22T13:30:36.893Z,100774.56
2018-04-22T13:33:43.601Z,100769.98
2018-04-22T13:36:50.817Z,100767.83
2018-04-22T13:39:56.619Z,100767.05
2018-04-22T13:43:03.442Z,100766.00
2018-04-22T13:46:09.221Z,100765.38
2018-04-22T13:49:14.485Z,100756.33
2018-04-22T13:52:19.946Z,100747.83
2018-04-22T13:55:26.161Z,100749.08
2018-04-22T13:58:32.299Z,100745.80
2018-04-22T14:01:38.189Z,100743.52
2018-04-22T14:04:44.369Z,100731.46
2018-04-22T14:07:50.475Z,100723.55
2018-04-22T14:10:56.657Z,100719.72
2018-04-22T14:14:02.542Z,100712.66
2018-04-22T14:17:08.667Z,100695.84
2018-04-22T14:20:13.713Z,100695.33
2018-04-22T14:23:18.750Z,100693.78
2018-04-22T14:26:24.935Z,100681.92
2018-04-22T14:29:30.235Z,100668.58
2018-04-22T14:32:35.507Z,100672.02
2018-04-22T14:35:41.759Z,100671.11
2018-04-22T14:38:47.942Z,100667.92
2018-04-22T14:41:54.756Z,100656.59
2018-04-22T14:45:12.018Z,100650.52
2018-04-22T14:48:17.649Z,100644.34
2018-04-22T14:51:23.568Z,100641.45
2018-04-22T14:54:29.303Z,100641.03
2018-04-22T14:57:36.481Z,100637.91
2018-04-22T15:00:43.218Z,100636.59
2018-04-22T15:03:49.326Z,100629.72
2018-04-22T15:06:56.330Z,100625.19
2018-04-22T15:10:02.156Z,100625.19
2018-04-22T15:13:08.077Z,100623.22
2018-04-22T15:16:13.359Z,100620.81
2018-04-22T15:19:19.454Z,100614.22
2018-04-22T15:22:25.542Z,100612.92
2018-04-22T15:25:31.756Z,100603.79
2018-04-22T15:28:37.831Z,100606.59
2018-04-22T15:31:43.729Z,100608.19
2018-04-22T15:34:49.842Z,100604.83
2018-04-22T15:37:56.073Z,100600.58
2018-04-22T15:41:02.895Z,100600.58
2018-04-22T15:44:10.039Z,100595.15
2018-04-22T15:47:16.029Z,100582.45
2018-04-22T15:50:21.922Z,100582.72
2018-04-22T15:53:27.833Z,100579.48
2018-04-22T15:56:33.762Z,100573.92
2018-04-22T15:59:40.789Z,100569.19
2018-04-22T16:02:46.874Z,100573.95
2018-04-22T16:05:52.784Z,100569.14
2018-04-22T16:08:58.894Z,100570.38
2018-04-22T16:12:04.973Z,100564.77
2018-04-22T16:15:11.810Z,100568.93
2018-04-22T16:18:17.911Z,100567.36
2018-04-22T16:21:23.997Z,100561.06
2018-04-22T16:24:28.943Z,100561.47
2018-04-22T16:27:34.222Z,100558.93
2018-04-22T16:30:41.346Z,100559.73
2018-04-22T16:33:47.657Z,100557.00
2018-04-22T16:36:54.903Z,100562.02
2018-04-22T16:40:01.879Z,100561.59
2018-04-22T16:43:08.081Z,100553.23
2018-04-22T16:46:13.986Z,100550.97
2018-04-22T16:49:20.206Z,100555.72
2018-04-22T16:52:25.847Z,100550.71
2018-04-22T16:55:32.098Z,100546.64
2018-04-22T16:58:39.186Z,100541.03
2018-04-22T17:01:45.983Z,100534.88
2018-04-22T17:04:52.993Z,100530.95
2018-04-22T17:08:00.125Z,100523.96
2018-04-22T17:11:05.977Z,100521.61
2018-04-22T17:14:11.865Z,100518.26
2018-04-22T17:17:18.678Z,100518.03
2018-04-22T17:20:25.685Z,100507.66
2018-04-22T17:23:32.843Z,100516.03
2018-04-22T17:26:38.650Z,100514.36
2018-04-22T17:29:45.661Z,100503.20
2018-04-22T17:32:51.753Z,100498.58
2018-04-22T17:35:57.770Z,100496.02
2018-04-22T17:39:03.405Z,100494.38
2018-04-22T17:42:09.589Z,100495.23
2018-04-22T17:45:16.572Z,100495.31
2018-04-22T17:48:22.678Z,100495.34
2018-04-22T17:51:28.567Z,100499.05
2018-04-22T17:54:34.699Z,100486.61
2018-04-22T17:57:40.582Z,100483.50
2018-04-22T18:00:47.393Z,100484.11
2018-04-22T18:03:54.621Z,100484.17
2018-04-22T18:07:00.456Z,100487.00
2018-04-22T18:10:06.462Z,100481.78
2018-04-22T18:13:12.540Z,100478.65
2018-04-22T18:16:20.095Z,100479.75
2018-04-22T18:19:25.412Z,100480.45
2018-04-22T18:22:31.506Z,100476.83
2018-04-22T18:25:37.631Z,100475.44
2018-04-22T18:28:44.623Z,100473.17
2018-04-22T18:31:50.840Z,100482.20
2018-04-22T18:34:56.642Z,100481.26
2018-04-22T18:38:03.642Z,100486.66
2018-04-22T18:41:09.782Z,100483.08
2018-04-22T18:44:15.720Z,100483.78
2018-04-22T18:47:21.874Z,100481.44
2018-04-22T18:50:27.151Z,100483.05
2018-04-22T18:53:33.564Z,100482.06
2018-04-22T18:56:40.393Z,100480.51
2018-04-22T18:59:46.549Z,100483.28
2018-04-22T19:02:51.901Z,100474.09
2018-04-22T19:05:57.219Z,100473.38
2018-04-22T19:09:02.369Z,100470.05
2018-04-22T19:12:07.370Z,100461.59
2018-04-22T19:15:12.663Z,100465.11
2018-04-22T19:18:19.025Z,100466.48
2018-04-22T19:21:25.141Z,100465.77
2018-04-22T19:24:31.370Z,100456.38
2018-04-22T19:27:37.677Z,100461.16
2018-04-22T19:30:43.650Z,100458.61
2018-04-22T19:33:50.353Z,100458.20
2018-04-22T19:36:55.663Z,100455.53
2018-04-22T19:40:00.983Z,100456.02
2018-04-22T19:43:06.297Z,100451.27
2018-04-22T19:46:12.387Z,100446.09
2018-04-22T19:49:18.290Z,100444.72
2018-04-22T19:52:25.333Z,100443.42
2018-04-22T19:55:31.461Z,100436.03
2018-04-22T19:58:38.332Z,100438.98
2018-04-22T20:01:45.456Z,100436.70
2018-04-22T20:04:52.637Z,100425.35
2018-04-22T20:07:58.119Z,100417.47
2018-04-22T20:11:04.213Z,100410.08
2018-04-22T20:14:10.417Z,100399.11
2018-04-22T20:17:16.533Z,100398.52
2018-04-22T20:20:22.735Z,100384.12
2018-04-22T20:23:29.922Z,100376.60
2018-04-22T20:26:35.859Z,100370.07
2018-04-22T20:29:41.689Z,100371.98
2018-04-22T20:32:47.921Z,100373.92
2018-04-22T20:35:54.955Z,100367.21
2018-04-22T20:39:01.056Z,100367.41
2018-04-22T20:42:06.704Z,100368.11
2018-04-22T20:45:13.092Z,100373.46
2018-04-22T20:48:18.882Z,100371.93
2018-04-22T20:51:25.786Z,100370.42
2018-04-22T20:54:32.621Z,100369.30
2018-04-22T20:57:39.490Z,100366.06
2018-04-22T21:00:45.026Z,100349.95
2018-04-22T21:03:51.533Z,100363.02
2018-04-22T21:06:57.058Z,100349.39
2018-04-22T21:10:02.386Z,100354.67
2018-04-22T21:13:09.637Z,100353.97
2018-04-22T21:16:15.770Z,100347.55
2018-04-22T21:19:22.578Z,100358.38
2018-04-22T21:22:28.690Z,100364.02
2018-04-22T21:25:33.984Z,100362.72
2018-04-22T21:28:41.110Z,100361.37
2018-04-22T21:31:47.169Z,100365.48
2018-04-22T21:34:53.122Z,100372.14
2018-04-22T21:37:59.250Z,100373.59
2018-04-22T21:41:05.506Z,100376.77
2018-04-22T21:44:11.893Z,100392.41
2018-04-22T21:47:17.890Z,100397.69
2018-04-22T21:50:23.977Z,100401.52
2018-04-22T21:53:30.072Z,100396.03
2018-04-22T21:56:36.046Z,100395.73
2018-04-22T21:59:41.937Z,100407.13
2018-04-22T22:02:47.925Z,100404.95
2018-04-22T22:05:53.811Z,100407.72
2018-04-22T22:08:59.783Z,100402.87
2018-04-22T22:12:06.314Z,100419.93
2018-04-22T22:15:11.589Z,100432.75
2018-04-22T22:18:17.495Z,100452.73
2018-04-22T22:21:23.539Z,100465.41
2018-04-22T22:24:29.342Z,100472.48
2018-04-22T22:27:35.544Z,100465.13
2018-04-22T22:30:41.370Z,100462.48
2018-04-22T22:33:47.441Z,100474.54
2018-04-22T22:36:53.347Z,100474.13
2018-04-22T22:39:59.356Z,100460.00
2018-04-22T22:43:05.482Z,100466.53
2018-04-22T22:46:11.453Z,100465.77
2018-04-22T22:49:17.552Z,100467.94
2018-04-22T22:52:23.550Z,100456.83
2018-04-22T22:55:29.641Z,100458.67
2018-04-22T22:58:35.824Z,100445.46
2018-04-22T23:01:42.218Z,100428.75
2018-04-22T23:04:48.107Z,100428.11
2018-04-22T23:07:54.325Z,100424.89
2018-04-22T23:11:00.102Z,100430.36
2018-04-22T23:14:05.365Z,100427.23
2018-04-22T23:17:11.593Z,100423.20
2018-04-22T23:20:17.386Z,100411.84
2018-04-22T23:23:22.659Z,100407.78
2018-04-22T23:26:28.911Z,100407.22
2018-04-22T23:29:35.106Z,100405.73
2018-04-22T23:32:40.361Z,100394.74
2018-04-22T23:35:46.106Z,100407.46
2018-04-22T23:38:52.229Z,100394.34
2018-04-22T23:41:58.474Z,100395.09
2018-04-22T23:45:04.205Z,100390.23
2018-04-22T23:48:09.485Z,100385.82
2018-04-22T23:51:14.749Z,100371.94
2018-04-22T23:54:20.842Z,100374.84
2018-04-22T23:57:26.110Z,100384.11
